createdAt,value
2017-10-21T00:01:24.963Z,12.10
2017-10-21T00:03:52.460Z,12.12
2017-10-21T00:06:19.957Z,12.15
2017-10-21T00:08:47.486Z,12.16
2017-10-21T00:11:14.975Z,12.12
2017-10-21T00:13:42.472Z,12.11
2017-10-21T00:16:10.130Z,12.06
2017-10-21T00:18:37.638Z,12.05
2017-10-21T00:21:05.133Z,12.03
2017-10-21T00:23:32.668Z,12.03
2017-10-21T00:26:00.159Z,12.03
2017-10-21T00:28:27.653Z,12.07
2017-10-21T00:30:55.222Z,12.07
2017-10-21T00:33:22.737Z,12.07
2017-10-21T00:35:50.289Z,12.07
2017-10-21T00:38:17.813Z,12.06
2017-10-21T00:40:45.312Z,12.08
2017-10-21T00:43:12.810Z,12.13
2017-10-21T00:45:40.355Z,12.12
2017-10-21T00:48:07.848Z,12.13
2017-10-21T00:50:35.360Z,12.09
2017-10-21T00:53:02.895Z,12.08
2017-10-21T00:55:30.456Z,12.09
2017-10-21T00:57:57.952Z,12.11
2017-10-21T01:00:25.689Z,12.14
2017-10-21T01:02:53.180Z,12.15
2017-10-21T01:05:20.683Z,12.16
2017-10-21T01:07:48.222Z,12.13
2017-10-21T01:10:15.825Z,12.12
2017-10-21T01:12:43.316Z,12.11
2017-10-21T01:15:10.936Z,12.11
2017-10-21T01:17:38.516Z,12.10
2017-10-21T01:20:06.007Z,12.11
2017-10-21T01:22:33.719Z,12.09
2017-10-21T01:25:01.225Z,12.07
2017-10-21T01:27:28.726Z,12.07
2017-10-21T01:29:56.267Z,12.11
2017-10-21T01:32:23.850Z,12.11
2017-10-21T01:34:51.343Z,12.14
2017-10-21T01:37:18.868Z,12.17
2017-10-21T01:39:46.359Z,12.17
2017-10-21T01:42:13.857Z,12.13
2017-10-21T01:44:41.379Z,12.05
2017-10-21T01:47:08.876Z,12.03
2017-10-21T01:49:36.369Z,11.98
2017-10-21T01:52:04.020Z,11.93
2017-10-21T01:54:31.511Z,11.89
2017-10-21T01:56:59.003Z,11.90
2017-10-21T01:59:26.600Z,11.88
2017-10-21T02:01:54.088Z,11.82
2017-10-21T02:04:21.575Z,11.79
2017-10-21T02:06:49.098Z,11.74
2017-10-21T02:09:16.584Z,11.70
2017-10-21T02:11:44.079Z,11.67
2017-10-21T02:14:11.612Z,11.65
2017-10-21T02:16:39.199Z,11.63
2017-10-21T02:19:06.691Z,11.64
2017-10-21T02:21:34.520Z,11.62
2017-10-21T02:24:02.009Z,11.57
2017-10-21T02:26:29.544Z,11.54
2017-10-21T02:28:57.069Z,11.50
2017-10-21T02:31:24.554Z,11.47
2017-10-21T02:33:52.040Z,11.45
2017-10-21T02:36:19.581Z,11.43
2017-10-21T02:38:47.076Z,11.39
2017-10-21T02:41:14.795Z,11.37
2017-10-21T02:43:42.280Z,11.34
2017-10-21T02:46:09.782Z,11.33
2017-10-21T02:48:37.319Z,11.31
2017-10-21T02:51:04.817Z,11.28
2017-10-21T02:53:32.317Z,11.27
2017-10-21T02:55:59.855Z,11.27
2017-10-21T02:58:27.351Z,11.28
2017-10-21T03:00:54.842Z,11.25
2017-10-21T03:03:22.414Z,11.23
2017-10-21T03:05:49.898Z,11.19
2017-10-21T03:08:17.401Z,11.16
2017-10-21T03:10:44.940Z,11.14
2017-10-21T03:13:12.426Z,11.06
2017-10-21T03:15:39.913Z,10.99
2017-10-21T03:18:07.438Z,10.94
2017-10-21T03:20:35.034Z,10.88
2017-10-21T03:23:02.592Z,10.82
2017-10-21T03:25:30.120Z,10.79
2017-10-21T03:27:57.618Z,10.77
2017-10-21T03:30:25.113Z,10.75
2017-10-21T03:32:52.652Z,10.75
2017-10-21T03:35:20.136Z,10.74
2017-10-21T03:37:47.616Z,10.74
2017-10-21T03:40:15.166Z,10.74
2017-10-21T03:42:44.467Z,10.76
2017-10-21T03:45:12.047Z,10.80
2017-10-21T03:47:39.581Z,10.84
2017-10-21T03:50:07.090Z,10.91
2017-10-21T03:52:34.571Z,10.96
2017-10-21T03:55:02.192Z,11.01
2017-10-21T03:57:29.699Z,11.05
2017-10-21T03:59:57.190Z,11.07
2017-10-21T04:02:24.727Z,11.08
2017-10-21T04:04:52.322Z,11.11
2017-10-21T04:07:19.807Z,11.12
2017-10-21T04:09:47.353Z,11.14
2017-10-21T04:12:14.837Z,11.15
2017-10-21T04:14:42.326Z,11.16
2017-10-21T04:17:09.854Z,11.17
2017-10-21T04:19:37.345Z,11.19
2017-10-21T04:22:04.834Z,11.16
2017-10-21T04:24:32.395Z,11.16
2017-10-21T04:26:59.886Z,11.19
2017-10-21T04:29:27.372Z,11.20
2017-10-21T04:31:54.891Z,11.20
2017-10-21T04:34:22.433Z,11.21
2017-10-21T04:36:49.947Z,11.23
2017-10-21T04:39:17.433Z,11.22
2017-10-21T04:41:45.105Z,11.21
2017-10-21T04:44:12.588Z,11.24
2017-10-21T04:46:40.116Z,11.26
2017-10-21T04:49:07.652Z,11.24
2017-10-21T04:51:35.141Z,11.24
2017-10-21T04:54:02.631Z,11.22
2017-10-21T04:56:30.172Z,11.22
2017-10-21T04:58:57.654Z,11.22
2017-10-21T05:01:25.163Z,11.21
2017-10-21T05:03:52.824Z,11.19
2017-10-21T05:06:20.324Z,11.19
2017-10-21T05:08:47.817Z,11.15
2017-10-21T05:11:15.340Z,11.10
2017-10-21T05:13:42.863Z,11.05
2017-10-21T05:16:10.427Z,11.04
2017-10-21T05:18:37.936Z,10.99
2017-10-21T05:21:05.424Z,10.93
2017-10-21T05:23:32.973Z,10.92
2017-10-21T05:26:00.492Z,10.93
2017-10-21T05:28:27.994Z,10.95
2017-10-21T05:30:55.659Z,10.95
2017-10-21T05:33:23.155Z,10.95
2017-10-21T05:35:50.651Z,10.97
2017-10-21T05:38:18.245Z,10.95
2017-10-21T05:40:45.828Z,10.94
2017-10-21T05:43:13.325Z,10.94
2017-10-21T05:45:40.843Z,10.92
2017-10-21T05:48:08.341Z,10.92
2017-10-21T05:50:35.835Z,10.93
2017-10-21T05:53:03.363Z,10.90
2017-10-21T05:55:30.854Z,10.88
2017-10-21T05:57:58.353Z,10.90
2017-10-21T06:00:25.892Z,10.94
2017-10-21T06:02:53.380Z,10.96
2017-10-21T06:05:20.870Z,10.97
2017-10-21T06:07:48.415Z,10.99
2017-10-21T06:10:15.897Z,11.01
2017-10-21T06:12:43.382Z,11.04
2017-10-21T06:15:10.903Z,11.06
2017-10-21T06:17:39.732Z,11.07
2017-10-21T06:20:07.253Z,11.12
2017-10-21T06:22:34.786Z,11.17
2017-10-21T06:25:02.287Z,11.19
2017-10-21T06:27:29.783Z,11.24
2017-10-21T06:29:57.307Z,11.31
2017-10-21T06:32:24.798Z,11.34
2017-10-21T06:34:52.283Z,11.35
2017-10-21T06:37:19.823Z,11.35
2017-10-21T06:39:47.340Z,11.36
2017-10-21T06:42:14.833Z,11.37
2017-10-21T06:44:42.450Z,11.36
2017-10-21T06:47:09.946Z,11.41
2017-10-21T06:49:37.435Z,11.39
2017-10-21T06:52:04.988Z,11.41
2017-10-21T06:54:32.481Z,11.41
2017-10-21T06:57:00.049Z,11.39
2017-10-21T06:59:27.560Z,11.40
2017-10-21T07:01:55.050Z,11.45
2017-10-21T07:04:22.608Z,11.51
2017-10-21T07:06:50.238Z,11.54
2017-10-21T07:09:17.728Z,11.53
2017-10-21T07:11:45.215Z,11.58
2017-10-21T07:14:12.753Z,11.63
2017-10-21T07:16:40.292Z,11.70
2017-10-21T07:19:07.863Z,11.68
2017-10-21T07:21:35.436Z,11.70
2017-10-21T07:24:03.075Z,11.81
2017-10-21T07:26:30.563Z,11.94
2017-10-21T07:28:58.046Z,12.04
2017-10-21T07:31:25.647Z,12.17
2017-10-21T07:33:53.142Z,12.26
2017-10-21T07:36:20.637Z,12.39
2017-10-21T07:38:48.153Z,12.43
2017-10-21T07:41:15.649Z,12.46
2017-10-21T07:43:43.137Z,12.44
2017-10-21T07:46:10.651Z,12.40
2017-10-21T07:48:38.144Z,12.46
2017-10-21T07:51:05.634Z,12.51
2017-10-21T07:53:33.196Z,12.55
2017-10-21T07:56:00.682Z,12.57
2017-10-21T07:58:28.167Z,12.62
2017-10-21T08:00:55.712Z,12.60
2017-10-21T08:03:23.201Z,12.71
2017-10-21T08:05:50.687Z,12.73
2017-10-21T08:08:18.346Z,12.72
2017-10-21T08:10:45.846Z,12.84
2017-10-21T08:13:13.329Z,12.88
2017-10-21T08:15:40.943Z,12.94
2017-10-21T08:18:08.472Z,12.90
2017-10-21T08:20:35.964Z,12.89
2017-10-21T08:23:03.496Z,12.89
2017-10-21T08:25:31.077Z,12.95
2017-10-21T08:27:58.574Z,12.97
2017-10-21T08:30:26.124Z,12.89
2017-10-21T08:32:53.619Z,12.87
2017-10-21T08:35:21.109Z,12.90
2017-10-21T08:37:48.650Z,12.92
2017-10-21T08:40:16.149Z,12.90
2017-10-21T08:42:43.667Z,12.78
2017-10-21T08:45:11.204Z,12.71
2017-10-21T08:47:38.703Z,12.77
2017-10-21T08:50:06.190Z,12.81
2017-10-21T08:52:33.725Z,12.86
2017-10-21T08:55:01.208Z,12.90
2017-10-21T08:57:28.695Z,12.92
2017-10-21T08:59:56.213Z,12.92
2017-10-21T09:02:23.696Z,12.82
2017-10-21T09:04:51.235Z,12.82
2017-10-21T09:07:18.728Z,12.84
2017-10-21T09:09:46.215Z,12.91
2017-10-21T09:12:13.748Z,12.94
2017-10-21T09:14:41.248Z,12.97
2017-10-21T09:17:08.737Z,12.99
2017-10-21T09:19:36.337Z,12.98
2017-10-21T09:22:03.840Z,12.99
2017-10-21T09:24:31.337Z,12.94
2017-10-21T09:26:58.874Z,12.91
2017-10-21T09:29:26.362Z,12.88
2017-10-21T09:31:53.846Z,12.94
2017-10-21T09:34:21.396Z,12.96
2017-10-21T09:36:48.889Z,13.05
2017-10-21T09:39:16.392Z,13.06
2017-10-21T09:41:43.925Z,13.00
2017-10-21T09:44:11.422Z,13.02
2017-10-21T09:46:38.947Z,13.11
2017-10-21T09:49:06.436Z,13.16
2017-10-21T09:51:33.919Z,13.06
2017-10-21T09:54:01.450Z,13.01
2017-10-21T09:56:28.943Z,13.06
2017-10-21T09:58:56.427Z,13.17
2017-10-21T10:01:24.140Z,13.26
2017-10-21T10:03:51.649Z,13.30
2017-10-21T10:06:19.249Z,13.34
2017-10-21T10:08:46.772Z,13.38
2017-10-21T10:11:14.267Z,13.43
2017-10-21T10:13:41.760Z,13.53
2017-10-21T10:16:09.280Z,13.52
2017-10-21T10:18:36.841Z,13.55
2017-10-21T10:21:04.341Z,13.56
2017-10-21T10:23:31.862Z,13.61
2017-10-21T10:25:59.419Z,13.67
2017-10-21T10:28:26.915Z,13.62
2017-10-21T10:30:54.434Z,13.62
2017-10-21T10:33:21.946Z,13.49
2017-10-21T10:35:49.466Z,13.48
2017-10-21T10:38:16.980Z,13.48
2017-10-21T10:40:44.512Z,13.48
2017-10-21T10:43:12.025Z,13.52
2017-10-21T10:45:39.539Z,13.65
2017-10-21T10:48:07.160Z,13.60
2017-10-21T10:50:34.648Z,13.47
2017-10-21T10:53:02.137Z,13.49
2017-10-21T10:55:29.713Z,13.45
2017-10-21T10:57:57.221Z,13.57
2017-10-21T11:00:24.725Z,13.67
2017-10-21T11:02:52.399Z,13.73
2017-10-21T11:05:19.905Z,13.73
2017-10-21T11:07:47.392Z,13.65
2017-10-21T11:10:14.941Z,13.62
2017-10-21T11:12:43.371Z,13.53
2017-10-21T11:15:10.873Z,13.47
2017-10-21T11:17:38.571Z,13.39
2017-10-21T11:20:06.070Z,13.52
2017-10-21T11:22:33.563Z,13.56
2017-10-21T11:25:01.149Z,13.62
2017-10-21T11:27:28.670Z,13.61
2017-10-21T11:29:56.256Z,13.70
2017-10-21T11:32:23.746Z,13.64
2017-10-21T11:34:51.272Z,13.57
2017-10-21T11:37:18.759Z,13.55
2017-10-21T11:39:46.296Z,13.59
2017-10-21T11:42:13.876Z,13.63
2017-10-21T11:44:41.360Z,13.56
2017-10-21T11:47:08.864Z,13.47
2017-10-21T11:49:36.363Z,13.43
2017-10-21T11:52:03.897Z,13.48
2017-10-21T11:54:31.388Z,13.59
2017-10-21T11:56:58.874Z,13.70
2017-10-21T11:59:26.409Z,13.70
2017-10-21T12:01:53.927Z,13.83
2017-10-21T12:04:21.495Z,13.93
2017-10-21T12:06:49.144Z,14.02
2017-10-21T12:09:16.717Z,14.04
2017-10-21T12:11:44.209Z,14.00
2017-10-21T12:14:11.820Z,13.94
2017-10-21T12:16:39.323Z,14.03
2017-10-21T12:19:06.839Z,14.05
2017-10-21T12:21:34.353Z,14.13
2017-10-21T12:24:01.965Z,14.12
2017-10-21T12:26:29.533Z,13.93
2017-10-21T12:28:57.020Z,13.81
2017-10-21T12:31:24.506Z,13.75
2017-10-21T12:33:52.024Z,13.77
2017-10-21T12:36:19.515Z,13.80
2017-10-21T12:38:47.051Z,13.79
2017-10-21T12:41:14.535Z,13.77
2017-10-21T12:43:42.044Z,13.68
2017-10-21T12:46:09.567Z,13.65
2017-10-21T12:48:37.057Z,13.63
2017-10-21T12:51:04.617Z,13.55
2017-10-21T12:53:32.149Z,13.50
2017-10-21T12:55:59.715Z,13.46
2017-10-21T12:58:27.278Z,13.40
2017-10-21T13:00:54.805Z,13.41
2017-10-21T13:03:22.293Z,13.47
2017-10-21T13:05:49.853Z,13.50
2017-10-21T13:08:17.388Z,13.46
2017-10-21T13:10:44.880Z,13.38
2017-10-21T13:13:12.378Z,13.50
2017-10-21T13:15:39.913Z,13.50
2017-10-21T13:18:07.460Z,13.62
2017-10-21T13:20:34.944Z,13.69
2017-10-21T13:23:02.471Z,13.79
2017-10-21T13:25:29.956Z,13.82
2017-10-21T13:27:57.532Z,13.81
2017-10-21T13:30:25.068Z,13.89
2017-10-21T13:32:52.596Z,14.01
2017-10-21T13:35:20.107Z,14.00
2017-10-21T13:37:47.803Z,14.01
2017-10-21T13:40:15.298Z,13.93
2017-10-21T13:42:42.826Z,13.97
2017-10-21T13:45:10.359Z,13.92
2017-10-21T13:47:37.851Z,13.85
2017-10-21T13:50:05.352Z,13.81
2017-10-21T13:52:32.872Z,13.81
2017-10-21T13:55:00.429Z,13.88
2017-10-21T13:57:27.917Z,13.83
2017-10-21T13:59:55.640Z,13.81
2017-10-21T14:02:23.192Z,13.80
2017-10-21T14:04:50.688Z,13.81
2017-10-21T14:07:18.213Z,13.67
2017-10-21T14:09:45.796Z,13.58
2017-10-21T14:12:13.298Z,13.58
2017-10-21T14:14:40.857Z,13.60
2017-10-21T14:17:08.344Z,13.62
2017-10-21T14:19:35.828Z,13.65
2017-10-21T14:22:03.392Z,13.73
2017-10-21T14:24:30.888Z,13.74
2017-10-21T14:26:58.401Z,13.73
2017-10-21T14:29:25.918Z,13.69
2017-10-21T14:31:53.526Z,13.68
2017-10-21T14:34:21.017Z,13.62
2017-10-21T14:36:48.622Z,13.56
2017-10-21T14:39:16.105Z,13.48
2017-10-21T14:41:43.661Z,13.43
2017-10-21T14:44:11.175Z,13.46
2017-10-21T14:46:38.707Z,13.50
2017-10-21T14:49:06.222Z,13.57
2017-10-21T14:51:33.714Z,13.58
2017-10-21T14:54:01.215Z,13.63
2017-10-21T14:56:28.734Z,13.62
2017-10-21T14:58:56.269Z,13.59
2017-10-21T15:01:25.469Z,13.55
2017-10-21T15:03:52.964Z,13.53
2017-10-21T15:06:20.496Z,13.51
2017-10-21T15:08:47.995Z,13.45
2017-10-21T15:11:15.486Z,13.38
2017-10-21T15:13:43.044Z,13.31
2017-10-21T15:16:10.543Z,13.29
2017-10-21T15:18:38.039Z,13.31
2017-10-21T15:21:05.602Z,13.28
2017-10-21T15:23:33.119Z,13.25
2017-10-21T15:26:00.611Z,13.20
2017-10-21T15:28:28.132Z,13.18
2017-10-21T15:30:55.663Z,13.12
2017-10-21T15:33:23.204Z,13.08
2017-10-21T15:35:50.719Z,13.09
2017-10-21T15:38:18.250Z,13.10
2017-10-21T15:40:45.749Z,13.11
2017-10-21T15:43:13.249Z,13.10
2017-10-21T15:45:40.820Z,13.08
2017-10-21T15:48:08.361Z,13.05
2017-10-21T15:50:35.899Z,12.96
2017-10-21T15:53:03.436Z,12.94
2017-10-21T15:55:30.943Z,12.89
2017-10-21T15:57:58.510Z,12.85
2017-10-21T16:00:26.001Z,12.83
2017-10-21T16:02:53.491Z,12.86
2017-10-21T16:05:21.020Z,12.86
2017-10-21T16:07:48.520Z,12.87
2017-10-21T16:10:16.015Z,12.84
2017-10-21T16:12:43.655Z,12.85
2017-10-21T16:15:11.213Z,12.85
2017-10-21T16:17:38.711Z,12.82
2017-10-21T16:20:06.237Z,12.73
2017-10-21T16:22:33.732Z,12.71
2017-10-21T16:25:01.217Z,12.67
2017-10-21T16:27:28.767Z,12.68
2017-10-21T16:29:56.257Z,12.70
2017-10-21T16:32:23.836Z,12.67
2017-10-21T16:34:51.404Z,12.64
2017-10-21T16:37:18.898Z,12.67
2017-10-21T16:39:46.491Z,12.63
2017-10-21T16:42:14.036Z,12.64
2017-10-21T16:44:41.612Z,12.65
2017-10-21T16:47:09.172Z,12.66
2017-10-21T16:49:36.732Z,12.68
2017-10-21T16:52:04.225Z,12.67
2017-10-21T16:54:31.741Z,12.70
2017-10-21T16:56:59.282Z,12.68
2017-10-21T16:59:26.769Z,12.63
2017-10-21T17:01:54.269Z,12.64
2017-10-21T17:04:21.799Z,12.64
2017-10-21T17:06:49.296Z,12.63
2017-10-21T17:09:16.783Z,12.58
2017-10-21T17:11:44.349Z,12.57
2017-10-21T17:14:12.033Z,12.62
2017-10-21T17:16:39.522Z,12.61
2017-10-21T17:19:07.016Z,12.53
2017-10-21T17:21:34.589Z,12.51
2017-10-21T17:24:02.095Z,12.39
2017-10-21T17:26:29.586Z,12.36
2017-10-21T17:28:57.112Z,12.33
2017-10-21T17:31:24.599Z,12.33
2017-10-21T17:33:52.087Z,12.35
2017-10-21T17:36:19.636Z,12.32
2017-10-21T17:38:47.202Z,12.26
2017-10-21T17:41:14.704Z,12.20
2017-10-21T17:43:42.317Z,12.20
2017-10-21T17:46:09.818Z,12.21
2017-10-21T17:48:37.317Z,12.23
2017-10-21T17:51:04.848Z,12.17
2017-10-21T17:53:32.354Z,12.10
2017-10-21T17:55:59.912Z,12.10
2017-10-21T17:58:27.464Z,12.06
2017-10-21T18:00:55.013Z,12.07
2017-10-21T18:03:22.507Z,12.06
2017-10-21T18:05:50.053Z,12.08
2017-10-21T18:08:17.607Z,12.02
2017-10-21T18:10:45.100Z,12.03
2017-10-21T18:13:12.630Z,12.01
2017-10-21T18:15:40.116Z,12.01
2017-10-21T18:18:07.633Z,12.05
2017-10-21T18:20:35.132Z,12.07
2017-10-21T18:23:02.692Z,12.10
2017-10-21T18:25:30.218Z,12.10
2017-10-21T18:27:57.716Z,12.13
2017-10-21T18:30:25.428Z,12.10
2017-10-21T18:32:52.928Z,12.15
2017-10-21T18:35:20.420Z,12.20
2017-10-21T18:37:48.012Z,12.20
2017-10-21T18:40:15.563Z,12.23
2017-10-21T18:42:43.122Z,12.23
2017-10-21T18:45:10.639Z,12.27
2017-10-21T18:47:38.171Z,12.30
2017-10-21T18:50:05.712Z,12.32
2017-10-21T18:52:33.211Z,12.34
2017-10-21T18:55:00.749Z,12.40
2017-10-21T18:57:28.249Z,12.38
2017-10-21T18:59:55.744Z,12.39
2017-10-21T19:02:23.304Z,12.35
2017-10-21T19:04:50.852Z,12.28
2017-10-21T19:07:18.411Z,12.29
2017-10-21T19:09:45.992Z,12.25
2017-10-21T19:12:13.490Z,12.26
2017-10-21T19:17:14.696Z,12.32
2017-10-21T19:19:42.225Z,12.35
2017-10-21T19:22:09.731Z,12.40
2017-10-21T19:24:37.233Z,12.39
2017-10-21T19:27:04.859Z,12.36
2017-10-21T19:29:32.352Z,12.32
2017-10-21T19:31:59.841Z,12.30
2017-10-21T19:34:27.427Z,12.29
2017-10-21T19:36:54.971Z,12.28
2017-10-21T19:39:22.497Z,12.25
2017-10-21T19:41:50.084Z,12.21
2017-10-21T19:44:17.638Z,12.13
2017-10-21T19:46:45.138Z,12.08
2017-10-21T19:49:12.630Z,12.02
2017-10-21T19:51:40.838Z,11.94
2017-10-21T19:54:08.354Z,11.88
2017-10-21T19:56:35.957Z,11.84
2017-10-21T19:59:03.477Z,11.79
2017-10-21T20:01:30.967Z,11.81
2017-10-21T20:03:58.631Z,11.79
2017-10-21T20:06:26.208Z,11.72
2017-10-21T20:08:53.715Z,11.68
2017-10-21T20:11:21.248Z,11.67
2017-10-21T20:13:48.749Z,11.61
2017-10-21T20:16:16.237Z,11.58
2017-10-21T20:18:43.779Z,11.60
2017-10-21T20:21:11.276Z,11.61
2017-10-21T20:23:38.773Z,11.62
2017-10-21T20:26:06.308Z,11.62
2017-10-21T20:28:33.800Z,11.64
2017-10-21T20:31:01.302Z,11.63
2017-10-21T20:33:28.832Z,11.64
2017-10-21T20:35:56.329Z,11.65
2017-10-21T20:38:23.839Z,11.62
2017-10-21T20:40:51.370Z,11.59
2017-10-21T20:43:18.868Z,11.62
2017-10-21T20:45:46.368Z,11.65
2017-10-21T20:48:13.926Z,11.63
2017-10-21T20:50:41.420Z,11.65
2017-10-21T20:53:08.947Z,11.65
2017-10-21T20:55:36.475Z,11.69
2017-10-21T20:58:04.032Z,11.76
2017-10-21T21:00:31.568Z,11.76
2017-10-21T21:02:59.087Z,11.80
2017-10-21T21:05:26.637Z,11.84
2017-10-21T21:07:54.144Z,11.87
2017-10-21T21:10:21.711Z,11.84
2017-10-21T21:12:49.254Z,11.82
2017-10-21T21:15:16.829Z,11.78
2017-10-21T21:17:44.330Z,11.78
2017-10-21T21:20:11.874Z,11.82
2017-10-21T21:22:39.377Z,11.88
2017-10-21T21:25:06.959Z,11.89
2017-10-21T21:27:34.475Z,11.84
2017-10-21T21:30:02.026Z,11.84
2017-10-21T21:32:29.540Z,11.83
2017-10-21T21:34:57.049Z,11.87
2017-10-21T21:37:24.764Z,11.89
2017-10-21T21:39:52.264Z,11.88
2017-10-21T21:42:19.873Z,11.84
2017-10-21T21:44:47.436Z,11.89
2017-10-21T21:47:14.950Z,11.92
2017-10-21T21:49:42.439Z,11.96
2017-10-21T21:52:09.947Z,11.97
2017-10-21T21:54:37.488Z,11.96
2017-10-21T21:57:04.979Z,11.98
2017-10-21T21:59:32.474Z,11.96
2017-10-21T22:02:00.012Z,11.99
2017-10-21T22:04:27.598Z,11.99
2017-10-21T22:06:55.164Z,11.98
2017-10-21T22:09:22.684Z,11.95
2017-10-21T22:11:50.239Z,11.98
2017-10-21T22:14:17.740Z,11.94
2017-10-21T22:16:45.237Z,11.86
2017-10-21T22:19:12.763Z,11.82
2017-10-21T22:21:40.320Z,11.86
2017-10-21T22:24:07.883Z,11.91
2017-10-21T22:26:35.434Z,11.92
2017-10-21T22:29:02.989Z,11.95
2017-10-21T22:31:30.516Z,11.99
2017-10-21T22:33:58.015Z,11.99
2017-10-21T22:36:25.504Z,11.98
2017-10-21T22:38:53.023Z,11.93
2017-10-21T22:41:20.549Z,11.96
2017-10-21T22:43:48.053Z,11.99
2017-10-21T22:46:15.552Z,11.99
2017-10-21T22:48:43.156Z,11.97
2017-10-21T22:51:10.660Z,11.97
2017-10-21T22:53:38.155Z,11.98
2017-10-21T22:56:05.692Z,11.95
2017-10-21T22:58:33.303Z,11.94
2017-10-21T23:01:00.857Z,11.98
2017-10-21T23:03:28.387Z,12.00
2017-10-21T23:05:55.980Z,11.99
2017-10-21T23:08:23.478Z,11.99
2017-10-21T23:10:51.012Z,11.99
2017-10-21T23:13:18.504Z,11.97
2017-10-21T23:15:46.006Z,11.97
2017-10-21T23:18:13.529Z,11.93
2017-10-21T23:20:41.127Z,11.93
2017-10-21T23:23:08.626Z,11.99
2017-10-21T23:25:36.149Z,12.03
2017-10-21T23:28:03.641Z,12.07
2017-10-21T23:30:31.139Z,12.07
2017-10-21T23:32:58.672Z,12.04
2017-10-21T23:35:26.199Z,12.05
2017-10-21T23:37:53.727Z,12.03
2017-10-21T23:40:21.264Z,12.00
2017-10-21T23:42:48.754Z,11.98
2017-10-21T23:45:16.327Z,11.96
2017-10-21T23:47:43.856Z,11.94
2017-10-21T23:50:11.348Z,11.95
2017-10-21T23:52:38.840Z,12.00
2017-10-21T23:55:06.352Z,12.09
2017-10-21T23:57:33.849Z,12.06
